sensor_id;sensor_type;location;lat;lon;timestamp;pressure;altitude;pressure_sealevel;temperature
72405;BMP280;60395;52.020;113.548;2023-04-15T00:02:59;92227.75;;;20.31
72405;BMP280;60395;52.020;113.548;2023-04-15T00:06:04;92230.81;;;20.25
72405;BMP280;60395;52.020;113.548;2023-04-15T00:09:07;92222.91;;;20.66
72405;BMP280;60395;52.020;113.548;2023-04-15T00:12:11;92224.41;;;21.14
72405;BMP280;60395;52.020;113.548;2023-04-15T00:15:15;92221.75;;;20.52
72405;BMP280;60395;52.020;113.548;2023-04-15T00:18:18;92214.69;;;20.38
72405;BMP280;60395;52.020;113.548;2023-04-15T00:21:21;92209.38;;;19.96
72405;BMP280;60395;52.020;113.548;2023-04-15T00:24:24;92207.69;;;20.43
72405;BMP280;60395;52.020;113.548;2023-04-15T00:27:28;92206.09;;;21.37
72405;BMP280;60395;52.020;113.548;2023-04-15T00:30:32;92205.59;;;21.35
72405;BMP280;60395;52.020;113.548;2023-04-15T00:33:35;92201.47;;;21.27
72405;BMP280;60395;52.020;113.548;2023-04-15T00:36:38;92208.22;;;20.46
72405;BMP280;60395;52.020;113.548;2023-04-15T00:39:41;92192.63;;;18.98
72405;BMP280;60395;52.020;113.548;2023-04-15T00:42:45;92196.56;;;16.64
72405;BMP280;60395;52.020;113.548;2023-04-15T00:45:50;92187.94;;;14.73
72405;BMP280;60395;52.020;113.548;2023-04-15T00:48:54;92179.47;;;12.94
72405;BMP280;60395;52.020;113.548;2023-04-15T00:51:57;92186.69;;;11.69
72405;BMP280;60395;52.020;113.548;2023-04-15T00:55:01;92180.88;;;10.93
72405;BMP280;60395;52.020;113.548;2023-04-15T00:58:06;92170.84;;;10.19
72405;BMP280;60395;52.020;113.548;2023-04-15T01:01:09;92164.00;;;9.42
72405;BMP280;60395;52.020;113.548;2023-04-15T01:04:13;92151.78;;;8.97
72405;BMP280;60395;52.020;113.548;2023-04-15T01:07:18;92141.19;;;8.66
72405;BMP280;60395;52.020;113.548;2023-04-15T01:10:21;92141.75;;;8.30
72405;BMP280;60395;52.020;113.548;2023-04-15T01:13:24;92131.34;;;7.83
72405;BMP280;60395;52.020;113.548;2023-04-15T01:16:28;92125.44;;;7.38
72405;BMP280;60395;52.020;113.548;2023-04-15T01:19:32;92118.41;;;7.26
72405;BMP280;60395;52.020;113.548;2023-04-15T01:22:36;92107.16;;;7.36
72405;BMP280;60395;52.020;113.548;2023-04-15T01:25:42;92105.22;;;7.34
72405;BMP280;60395;52.020;113.548;2023-04-15T01:28:46;92109.97;;;7.19
72405;BMP280;60395;52.020;113.548;2023-04-15T01:31:51;92099.47;;;7.23
72405;BMP280;60395;52.020;113.548;2023-04-15T01:34:54;92093.03;;;7.16
72405;BMP280;60395;52.020;113.548;2023-04-15T01:38:04;92086.72;;;6.99
72405;BMP280;60395;52.020;113.548;2023-04-15T01:41:08;92075.84;;;6.81
72405;BMP280;60395;52.020;113.548;2023-04-15T01:44:11;92069.25;;;6.84
72405;BMP280;60395;52.020;113.548;2023-04-15T01:47:14;92063.34;;;6.89
72405;BMP280;60395;52.020;113.548;2023-04-15T01:50:17;92065.28;;;6.91
72405;BMP280;60395;52.020;113.548;2023-04-15T01:53:22;92056.72;;;6.98
72405;BMP280;60395;52.020;113.548;2023-04-15T01:56:26;92052.09;;;7.03
72405;BMP280;60395;52.020;113.548;2023-04-15T01:59:29;92048.03;;;7.14
72405;BMP280;60395;52.020;113.548;2023-04-15T02:02:33;92050.56;;;7.18
72405;BMP280;60395;52.020;113.548;2023-04-15T02:05:37;92048.75;;;7.08
72405;BMP280;60395;52.020;113.548;2023-04-15T02:08:40;92043.00;;;6.98
72405;BMP280;60395;52.020;113.548;2023-04-15T02:11:44;92046.66;;;7.19
72405;BMP280;60395;52.020;113.548;2023-04-15T02:14:48;92035.94;;;7.41
72405;BMP280;60395;52.020;113.548;2023-04-15T02:17:51;92037.59;;;7.61
72405;BMP280;60395;52.020;113.548;2023-04-15T02:27:16;92020.63;;;8.01
72405;BMP280;60395;52.020;113.548;2023-04-15T02:30:24;92022.88;;;8.21
72405;BMP280;60395;52.020;113.548;2023-04-15T02:33:27;92017.50;;;8.31
72405;BMP280;60395;52.020;113.548;2023-04-15T02:36:31;92008.91;;;8.37
72405;BMP280;60395;52.020;113.548;2023-04-15T02:39:36;92009.38;;;8.47
72405;BMP280;60395;52.020;113.548;2023-04-15T02:42:40;92007.94;;;8.52
72405;BMP280;60395;52.020;113.548;2023-04-15T02:45:47;91988.25;;;8.55
72405;BMP280;60395;52.020;113.548;2023-04-15T02:48:53;91988.25;;;8.55
72405;BMP280;60395;52.020;113.548;2023-04-15T02:51:58;91976.34;;;8.62
72405;BMP280;60395;52.020;113.548;2023-04-15T02:55:02;91966.34;;;8.71
72405;BMP280;60395;52.020;113.548;2023-04-15T02:58:07;91963.47;;;8.83
72405;BMP280;60395;52.020;113.548;2023-04-15T03:01:11;91955.38;;;8.95
72405;BMP280;60395;52.020;113.548;2023-04-15T03:04:15;91955.22;;;8.70
72405;BMP280;60395;52.020;113.548;2023-04-15T03:07:18;91938.38;;;8.63
72405;BMP280;60395;52.020;113.548;2023-04-15T03:10:22;91926.50;;;8.68
72405;BMP280;60395;52.020;113.548;2023-04-15T03:13:25;91931.47;;;8.81
72405;BMP280;60395;52.020;113.548;2023-04-15T03:16:31;91924.94;;;8.80
72405;BMP280;60395;52.020;113.548;2023-04-15T03:19:34;91913.66;;;8.56
72405;BMP280;60395;52.020;113.548;2023-04-15T03:22:38;91906.66;;;8.47
72405;BMP280;60395;52.020;113.548;2023-04-15T03:25:43;91892.06;;;8.58
72405;BMP280;60395;52.020;113.548;2023-04-15T03:28:48;91888.88;;;8.82
72405;BMP280;60395;52.020;113.548;2023-04-15T03:31:53;91882.81;;;8.92
72405;BMP280;60395;52.020;113.548;2023-04-15T03:34:56;91882.72;;;8.96
72405;BMP280;60395;52.020;113.548;2023-04-15T03:37:59;91880.75;;;8.96
72405;BMP280;60395;52.020;113.548;2023-04-15T03:41:02;91869.56;;;8.98
72405;BMP280;60395;52.020;113.548;2023-04-15T03:44:05;91873.56;;;8.95
72405;BMP280;60395;52.020;113.548;2023-04-15T03:47:09;91872.78;;;9.00
72405;BMP280;60395;52.020;113.548;2023-04-15T03:50:12;91854.66;;;9.19
72405;BMP280;60395;52.020;113.548;2023-04-15T03:53:15;91841.66;;;9.42
72405;BMP280;60395;52.020;113.548;2023-04-15T03:56:18;91845.03;;;9.63
72405;BMP280;60395;52.020;113.548;2023-04-15T03:59:22;91836.81;;;9.77
72405;BMP280;60395;52.020;113.548;2023-04-15T04:02:25;91822.09;;;9.88
72405;BMP280;60395;52.020;113.548;2023-04-15T04:05:30;91809.09;;;9.84
72405;BMP280;60395;52.020;113.548;2023-04-15T04:08:33;91805.88;;;9.82
72405;BMP280;60395;52.020;113.548;2023-04-15T04:11:36;91801.91;;;9.83
72405;BMP280;60395;52.020;113.548;2023-04-15T04:14:39;91800.06;;;9.79
72405;BMP280;60395;52.020;113.548;2023-04-15T04:17:43;91801.25;;;9.82
72405;BMP280;60395;52.020;113.548;2023-04-15T04:20:46;91798.44;;;9.90
72405;BMP280;60395;52.020;113.548;2023-04-15T04:23:49;91789.13;;;9.95
72405;BMP280;60395;52.020;113.548;2023-04-15T04:26:52;91785.91;;;9.93
72405;BMP280;60395;52.020;113.548;2023-04-15T04:29:56;91779.28;;;9.96
72405;BMP280;60395;52.020;113.548;2023-04-15T04:32:59;91786.00;;;9.89
72405;BMP280;60395;52.020;113.548;2023-04-15T04:36:02;91778.03;;;9.93
72405;BMP280;60395;52.020;113.548;2023-04-15T04:39:06;91773.91;;;10.00
72405;BMP280;60395;52.020;113.548;2023-04-15T04:42:09;91768.53;;;10.04
72405;BMP280;60395;52.020;113.548;2023-04-15T04:45:12;91764.41;;;10.11
72405;BMP280;60395;52.020;113.548;2023-04-15T04:48:16;91759.66;;;10.15
72405;BMP280;60395;52.020;113.548;2023-04-15T04:51:20;91748.63;;;10.13
72405;BMP280;60395;52.020;113.548;2023-04-15T04:54:23;91741.84;;;10.20
72405;BMP280;60395;52.020;113.548;2023-04-15T04:57:26;91738.13;;;10.34
72405;BMP280;60395;52.020;113.548;2023-04-15T05:00:30;91738.28;;;10.30
72405;BMP280;60395;52.020;113.548;2023-04-15T05:03:33;91731.09;;;10.28
72405;BMP280;60395;52.020;113.548;2023-04-15T05:06:36;91729.63;;;10.33
72405;BMP280;60395;52.020;113.548;2023-04-15T05:09:40;91717.16;;;10.34
72405;BMP280;60395;52.020;113.548;2023-04-15T05:12:44;91719.13;;;10.33
72405;BMP280;60395;52.020;113.548;2023-04-15T05:15:47;91713.91;;;10.31
72405;BMP280;60395;52.020;113.548;2023-04-15T05:18:50;91703.44;;;10.31
72405;BMP280;60395;52.020;113.548;2023-04-15T05:21:54;91693.78;;;10.46
72405;BMP280;60395;52.020;113.548;2023-04-15T05:24:57;91695.63;;;10.50
72405;BMP280;60395;52.020;113.548;2023-04-15T05:28:00;91690.00;;;10.41
72405;BMP280;60395;52.020;113.548;2023-04-15T05:31:04;91684.75;;;10.41
72405;BMP280;60395;52.020;113.548;2023-04-15T05:34:08;91679.19;;;10.51
72405;BMP280;60395;52.020;113.548;2023-04-15T05:37:15;91674.13;;;10.66
72405;BMP280;60395;52.020;113.548;2023-04-15T05:40:19;91673.13;;;10.75
72405;BMP280;60395;52.020;113.548;2023-04-15T05:43:22;91665.34;;;10.73
72405;BMP280;60395;52.020;113.548;2023-04-15T05:46:25;91648.38;;;10.50
72405;BMP280;60395;52.020;113.548;2023-04-15T05:49:30;91656.34;;;10.27
72405;BMP280;60395;52.020;113.548;2023-04-15T05:52:33;91649.09;;;10.07
72405;BMP280;60395;52.020;113.548;2023-04-15T05:55:36;91640.09;;;10.02
72405;BMP280;60395;52.020;113.548;2023-04-15T05:58:40;91642.41;;;10.12
72405;BMP280;60395;52.020;113.548;2023-04-15T06:01:43;91638.88;;;10.40
72405;BMP280;60395;52.020;113.548;2023-04-15T06:04:47;91641.78;;;10.71
72405;BMP280;60395;52.020;113.548;2023-04-15T06:07:50;91628.59;;;10.92
72405;BMP280;60395;52.020;113.548;2023-04-15T06:10:54;91623.53;;;11.05
72405;BMP280;60395;52.020;113.548;2023-04-15T06:13:57;91621.34;;;11.11
72405;BMP280;60395;52.020;113.548;2023-04-15T06:17:00;91610.53;;;11.19
72405;BMP280;60395;52.020;113.548;2023-04-15T06:20:04;91610.13;;;11.32
72405;BMP280;60395;52.020;113.548;2023-04-15T06:23:07;91608.56;;;11.39
72405;BMP280;60395;52.020;113.548;2023-04-15T06:26:10;91606.47;;;11.41
72405;BMP280;60395;52.020;113.548;2023-04-15T06:29:14;91594.94;;;11.51
72405;BMP280;60395;52.020;113.548;2023-04-15T06:32:17;91590.50;;;11.64
72405;BMP280;60395;52.020;113.548;2023-04-15T06:35:22;91588.31;;;11.52
72405;BMP280;60395;52.020;113.548;2023-04-15T06:38:26;91578.91;;;11.40
72405;BMP280;60395;52.020;113.548;2023-04-15T06:41:29;91580.19;;;11.41
72405;BMP280;60395;52.020;113.548;2023-04-15T06:44:32;91573.38;;;11.48
72405;BMP280;60395;52.020;113.548;2023-04-15T06:47:36;91565.25;;;11.54
72405;BMP280;60395;52.020;113.548;2023-04-15T06:50:39;91551.84;;;11.60
72405;BMP280;60395;52.020;113.548;2023-04-15T06:53:43;91555.44;;;11.69
72405;BMP280;60395;52.020;113.548;2023-04-15T06:56:46;91543.56;;;11.54
72405;BMP280;60395;52.020;113.548;2023-04-15T06:59:49;91552.53;;;11.42
72405;BMP280;60395;52.020;113.548;2023-04-15T07:02:54;91542.06;;;11.23
72405;BMP280;60395;52.020;113.548;2023-04-15T07:05:58;91536.06;;;11.08
72405;BMP280;60395;52.020;113.548;2023-04-15T07:09:02;91530.41;;;11.02
72405;BMP280;60395;52.020;113.548;2023-04-15T07:12:07;91520.38;;;11.06
72405;BMP280;60395;52.020;113.548;2023-04-15T07:15:10;91521.63;;;11.26
72405;BMP280;60395;52.020;113.548;2023-04-15T07:18:14;91510.19;;;11.50
72405;BMP280;60395;52.020;113.548;2023-04-15T07:21:17;91519.91;;;11.70
72405;BMP280;60395;52.020;113.548;2023-04-15T07:24:20;91523.41;;;11.81
72405;BMP280;60395;52.020;113.548;2023-04-15T07:27:25;91503.81;;;11.78
72405;BMP280;60395;52.020;113.548;2023-04-15T07:30:29;91497.41;;;11.73
72405;BMP280;60395;52.020;113.548;2023-04-15T07:33:32;91495.03;;;11.67
72405;BMP280;60395;52.020;113.548;2023-04-15T07:36:35;91502.75;;;11.71
72405;BMP280;60395;52.020;113.548;2023-04-15T07:39:38;91487.88;;;11.82
72405;BMP280;60395;52.020;113.548;2023-04-15T07:42:42;91480.81;;;11.94
72405;BMP280;60395;52.020;113.548;2023-04-15T07:45:45;91478.03;;;11.98
72405;BMP280;60395;52.020;113.548;2023-04-15T07:48:49;91472.72;;;12.00
72405;BMP280;60395;52.020;113.548;2023-04-15T07:51:52;91457.94;;;11.90
72405;BMP280;60395;52.020;113.548;2023-04-15T07:54:56;91451.03;;;11.82
72405;BMP280;60395;52.020;113.548;2023-04-15T07:57:59;91447.88;;;11.63
72405;BMP280;60395;52.020;113.548;2023-04-15T08:01:03;91455.84;;;11.61
72405;BMP280;60395;52.020;113.548;2023-04-15T08:04:06;91450.16;;;11.71
72405;BMP280;60395;52.020;113.548;2023-04-15T08:07:10;91438.13;;;11.76
72405;BMP280;60395;52.020;113.548;2023-04-15T08:10:13;91450.84;;;11.87
72405;BMP280;60395;52.020;113.548;2023-04-15T08:13:18;91448.88;;;11.87
72405;BMP280;60395;52.020;113.548;2023-04-15T08:16:24;91430.72;;;11.81
72405;BMP280;60395;52.020;113.548;2023-04-15T08:19:27;91430.16;;;11.78
72405;BMP280;60395;52.020;113.548;2023-04-15T08:22:30;91421.16;;;11.57
72405;BMP280;60395;52.020;113.548;2023-04-15T08:25:33;91406.59;;;11.60
72405;BMP280;60395;52.020;113.548;2023-04-15T08:28:38;91404.19;;;11.70
72405;BMP280;60395;52.020;113.548;2023-04-15T08:31:42;91397.41;;;11.75
72405;BMP280;60395;52.020;113.548;2023-04-15T08:34:45;91399.78;;;11.81
72405;BMP280;60395;52.020;113.548;2023-04-15T08:37:51;91384.25;;;11.75
72405;BMP280;60395;52.020;113.548;2023-04-15T08:40:55;91383.38;;;11.81
72405;BMP280;60395;52.020;113.548;2023-04-15T08:44:04;91377.94;;;11.85
72405;BMP280;60395;52.020;113.548;2023-04-15T08:47:08;91376.31;;;11.77
72405;BMP280;60395;52.020;113.548;2023-04-15T08:50:11;91376.94;;;11.78
72405;BMP280;60395;52.020;113.548;2023-04-15T08:53:17;91370.84;;;11.81
72405;BMP280;60395;52.020;113.548;2023-04-15T08:56:23;91363.84;;;11.76
72405;BMP280;60395;52.020;113.548;2023-04-15T08:59:29;91363.53;;;11.67
72405;BMP280;60395;52.020;113.548;2023-04-15T09:02:33;91362.84;;;11.69
72405;BMP280;60395;52.020;113.548;2023-04-15T09:05:38;91360.91;;;11.67
72405;BMP280;60395;52.020;113.548;2023-04-15T09:08:41;91361.94;;;11.74
72405;BMP280;60395;52.020;113.548;2023-04-15T09:11:44;91341.59;;;11.73
72405;BMP280;60395;52.020;113.548;2023-04-15T09:14:49;91369.00;;;11.47
72405;BMP280;60395;52.020;113.548;2023-04-15T09:17:54;91351.66;;;11.37
72405;BMP280;60395;52.020;113.548;2023-04-15T09:21:06;91352.38;;;11.36
72405;BMP280;60395;52.020;113.548;2023-04-15T09:24:10;91340.13;;;11.30
72405;BMP280;60395;52.020;113.548;2023-04-15T09:27:15;91350.63;;;11.30
72405;BMP280;60395;52.020;113.548;2023-04-15T09:30:18;91343.09;;;11.22
72405;BMP280;60395;52.020;113.548;2023-04-15T09:33:23;91347.94;;;11.15
72405;BMP280;60395;52.020;113.548;2023-04-15T09:36:27;91348.25;;;11.07
72405;BMP280;60395;52.020;113.548;2023-04-15T09:39:48;91339.34;;;11.00
72405;BMP280;60395;52.020;113.548;2023-04-15T09:42:56;91341.97;;;10.84
72405;BMP280;60395;52.020;113.548;2023-04-15T09:45:59;91331.63;;;10.63
72405;BMP280;60395;52.020;113.548;2023-04-15T09:49:10;91325.41;;;10.54
72405;BMP280;60395;52.020;113.548;2023-04-15T09:52:13;91324.53;;;10.59
72405;BMP280;60395;52.020;113.548;2023-04-15T09:55:17;91318.09;;;10.73
72405;BMP280;60395;52.020;113.548;2023-04-15T10:01:26;91310.94;;;10.88
72405;BMP280;60395;52.020;113.548;2023-04-15T10:04:30;91311.56;;;10.89
72405;BMP280;60395;52.020;113.548;2023-04-15T10:07:34;91293.19;;;10.89
72405;BMP280;60395;52.020;113.548;2023-04-15T10:10:38;91296.06;;;10.83
72405;BMP280;60395;52.020;113.548;2023-04-15T10:13:41;91298.88;;;10.79
72405;BMP280;60395;52.020;113.548;2023-04-15T10:16:46;91301.69;;;10.72
72405;BMP280;60395;52.020;113.548;2023-04-15T10:19:52;91306.00;;;10.63
72405;BMP280;60395;52.020;113.548;2023-04-15T10:22:56;91296.75;;;10.48
72405;BMP280;60395;52.020;113.548;2023-04-15T10:25:59;91290.13;;;10.32
72405;BMP280;60395;52.020;113.548;2023-04-15T10:29:04;91296.69;;;10.14
72405;BMP280;60395;52.020;113.548;2023-04-15T10:32:08;91294.13;;;9.96
72405;BMP280;60395;52.020;113.548;2023-04-15T10:35:12;91286.53;;;9.88
72405;BMP280;60395;52.020;113.548;2023-04-15T10:38:42;91287.25;;;9.67
72405;BMP280;60395;52.020;113.548;2023-04-15T10:41:45;91294.59;;;9.44
72405;BMP280;60395;52.020;113.548;2023-04-15T10:45:15;91296.56;;;9.25
72405;BMP280;60395;52.020;113.548;2023-04-15T10:48:20;91292.63;;;9.05
72405;BMP280;60395;52.020;113.548;2023-04-15T10:51:28;91290.44;;;8.91
72405;BMP280;60395;52.020;113.548;2023-04-15T10:54:32;91292.09;;;8.80
72405;BMP280;60395;52.020;113.548;2023-04-15T10:57:39;91285.84;;;8.71
72405;BMP280;60395;52.020;113.548;2023-04-15T11:00:43;91289.28;;;8.65
72405;BMP280;60395;52.020;113.548;2023-04-15T11:03:54;91287.09;;;8.51
72405;BMP280;60395;52.020;113.548;2023-04-15T11:07:06;91274.47;;;8.37
72405;BMP280;60395;52.020;113.548;2023-04-15T11:13:20;91275.97;;;8.30
72405;BMP280;60395;52.020;113.548;2023-04-15T11:16:28;91277.44;;;8.25
72405;BMP280;60395;52.020;113.548;2023-04-15T11:19:37;91268.44;;;8.20
72405;BMP280;60395;52.020;113.548;2023-04-15T11:22:49;91260.81;;;8.12
72405;BMP280;60395;52.020;113.548;2023-04-15T11:25:54;91249.34;;;8.03
72405;BMP280;60395;52.020;113.548;2023-04-15T11:28:58;91236.44;;;7.97
72405;BMP280;60395;52.020;113.548;2023-04-15T11:32:08;91235.91;;;7.92
72405;BMP280;60395;52.020;113.548;2023-04-15T11:35:12;91241.94;;;7.87
72405;BMP280;60395;52.020;113.548;2023-04-15T11:38:15;91248.03;;;7.79
72405;BMP280;60395;52.020;113.548;2023-04-15T11:41:22;91264.47;;;7.76
72405;BMP280;60395;52.020;113.548;2023-04-15T11:44:25;91276.44;;;7.68
72405;BMP280;60395;52.020;113.548;2023-04-15T11:47:28;91274.81;;;7.55
72405;BMP280;60395;52.020;113.548;2023-04-15T11:50:32;91273.94;;;7.40
72405;BMP280;60395;52.020;113.548;2023-04-15T11:53:41;91277.44;;;7.30
72405;BMP280;60395;52.020;113.548;2023-04-15T11:56:49;91281.53;;;7.23
72405;BMP280;60395;52.020;113.548;2023-04-15T11:59:54;91279.03;;;7.19
72405;BMP280;60395;52.020;113.548;2023-04-15T12:03:13;91277.13;;;7.17
72405;BMP280;60395;52.020;113.548;2023-04-15T12:06:21;91277.19;;;7.15
72405;BMP280;60395;52.020;113.548;2023-04-15T12:09:25;91283.13;;;7.12
72405;BMP280;60395;52.020;113.548;2023-04-15T12:12:28;91279.94;;;7.09
72405;BMP280;60395;52.020;113.548;2023-04-15T12:15:32;91276.81;;;7.05
72405;BMP280;60395;52.020;113.548;2023-04-15T12:18:38;91278.13;;;7.04
72405;BMP280;60395;52.020;113.548;2023-04-15T12:21:46;91269.03;;;7.01
72405;BMP280;60395;52.020;113.548;2023-04-15T12:24:53;91268.53;;;6.94
72405;BMP280;60395;52.020;113.548;2023-04-15T12:27:59;91271.34;;;6.88
72405;BMP280;60395;52.020;113.548;2023-04-15T12:31:09;91268.75;;;6.86
72405;BMP280;60395;52.020;113.548;2023-04-15T12:34:13;91272.03;;;6.85
72405;BMP280;60395;52.020;113.548;2023-04-15T12:37:17;91272.84;;;6.79
72405;BMP280;60395;52.020;113.548;2023-04-15T12:40:24;91272.28;;;6.74
72405;BMP280;60395;52.020;113.548;2023-04-15T12:43:27;91268.41;;;6.73
72405;BMP280;60395;52.020;113.548;2023-04-15T12:46:30;91267.69;;;6.77
72405;BMP280;60395;52.020;113.548;2023-04-15T12:49:34;91275.50;;;6.77
72405;BMP280;60395;52.020;113.548;2023-04-15T12:55:42;91271.25;;;6.63
72405;BMP280;60395;52.020;113.548;2023-04-15T12:58:46;91268.09;;;6.59
72405;BMP280;60395;52.020;113.548;2023-04-15T13:01:50;91268.69;;;6.61
72405;BMP280;60395;52.020;113.548;2023-04-15T13:04:54;91271.88;;;6.66
72405;BMP280;60395;52.020;113.548;2023-04-15T13:07:57;91267.16;;;6.70
72405;BMP280;60395;52.020;113.548;2023-04-15T13:14:05;91267.75;;;6.73
72405;BMP280;60395;52.020;113.548;2023-04-15T13:17:09;91265.75;;;6.76
72405;BMP280;60395;52.020;113.548;2023-04-15T13:20:13;91267.03;;;6.77
72405;BMP280;60395;52.020;113.548;2023-04-15T13:23:17;91268.31;;;6.78
72405;BMP280;60395;52.020;113.548;2023-04-15T13:26:20;91263.16;;;6.76
72405;BMP280;60395;52.020;113.548;2023-04-15T13:29:24;91256.09;;;6.70
72405;BMP280;60395;52.020;113.548;2023-04-15T13:32:27;91252.81;;;6.71
72405;BMP280;60395;52.020;113.548;2023-04-15T13:35:33;91255.97;;;6.76
72405;BMP280;60395;52.020;113.548;2023-04-15T13:38:37;91247.53;;;6.73
72405;BMP280;60395;52.020;113.548;2023-04-15T13:41:40;91248.84;;;6.72
72405;BMP280;60395;52.020;113.548;2023-04-15T13:44:43;91250.91;;;6.68
72405;BMP280;60395;52.020;113.548;2023-04-15T13:47:46;91239.28;;;6.65
72405;BMP280;60395;52.020;113.548;2023-04-15T13:50:50;91227.66;;;6.60
72405;BMP280;60395;52.020;113.548;2023-04-15T13:53:53;91224.50;;;6.55
72405;BMP280;60395;52.020;113.548;2023-04-15T13:56:56;91231.78;;;6.51
72405;BMP280;60395;52.020;113.548;2023-04-15T13:59:59;91212.28;;;6.48
72405;BMP280;60395;52.020;113.548;2023-04-15T14:03:07;91214.78;;;6.54
72405;BMP280;60395;52.020;113.548;2023-04-15T14:06:10;91218.56;;;6.57
72405;BMP280;60395;52.020;113.548;2023-04-15T14:09:13;91211.34;;;6.59
72405;BMP280;60395;52.020;113.548;2023-04-15T14:12:17;91210.22;;;6.52
72405;BMP280;60395;52.020;113.548;2023-04-15T14:15:20;91203.81;;;6.47
72405;BMP280;60395;52.020;113.548;2023-04-15T14:18:24;91207.88;;;6.42
72405;BMP280;60395;52.020;113.548;2023-04-15T14:21:27;91199.44;;;6.40
72405;BMP280;60395;52.020;113.548;2023-04-15T14:24:31;91197.38;;;6.44
72405;BMP280;60395;52.020;113.548;2023-04-15T14:27:34;91188.03;;;6.53
72405;BMP280;60395;52.020;113.548;2023-04-15T14:30:38;91186.47;;;6.64
72405;BMP280;60395;52.020;113.548;2023-04-15T14:33:41;91190.31;;;6.67
72405;BMP280;60395;52.020;113.548;2023-04-15T14:36:44;91179.06;;;6.73
72405;BMP280;60395;52.020;113.548;2023-04-15T14:39:47;91169.38;;;6.69
72405;BMP280;60395;52.020;113.548;2023-04-15T14:42:51;91174.72;;;6.65
72405;BMP280;60395;52.020;113.548;2023-04-15T14:45:54;91154.50;;;6.66
72405;BMP280;60395;52.020;113.548;2023-04-15T14:48:57;91159.91;;;6.56
72405;BMP280;60395;52.020;113.548;2023-04-15T14:52:01;91152.91;;;6.50
72405;BMP280;60395;52.020;113.548;2023-04-15T14:55:05;91148.38;;;6.49
72405;BMP280;60395;52.020;113.548;2023-04-15T14:58:09;91142.47;;;6.50
72405;BMP280;60395;52.020;113.548;2023-04-15T15:01:14;91138.72;;;6.43
72405;BMP280;60395;52.020;113.548;2023-04-15T15:04:17;91137.00;;;6.34
72405;BMP280;60395;52.020;113.548;2023-04-15T15:07:21;91135.53;;;6.14
72405;BMP280;60395;52.020;113.548;2023-04-15T15:10:24;91124.69;;;6.03
72405;BMP280;60395;52.020;113.548;2023-04-15T15:13:47;91127.75;;;6.12
72405;BMP280;60395;52.020;113.548;2023-04-15T15:16:50;91128.88;;;6.19
72405;BMP280;60395;52.020;113.548;2023-04-15T15:19:54;91117.78;;;6.20
72405;BMP280;60395;52.020;113.548;2023-04-15T15:22:57;91117.81;;;6.18
72405;BMP280;60395;52.020;113.548;2023-04-15T15:26:00;91111.97;;;6.18
72405;BMP280;60395;52.020;113.548;2023-04-15T15:29:04;91108.00;;;6.21
72405;BMP280;60395;52.020;113.548;2023-04-15T15:32:07;91114.44;;;6.24
72405;BMP280;60395;52.020;113.548;2023-04-15T15:35:11;91100.88;;;6.19
72405;BMP280;60395;52.020;113.548;2023-04-15T15:38:14;91110.66;;;6.19
72405;BMP280;60395;52.020;113.548;2023-04-15T15:41:18;91107.28;;;6.22
72405;BMP280;60395;52.020;113.548;2023-04-15T15:44:21;91102.81;;;6.19
72405;BMP280;60395;52.020;113.548;2023-04-15T15:47:24;91097.78;;;6.13
72405;BMP280;60395;52.020;113.548;2023-04-15T15:50:30;91097.78;;;6.13
72405;BMP280;60395;52.020;113.548;2023-04-15T15:53:34;91097.19;;;6.10
72405;BMP280;60395;52.020;113.548;2023-04-15T15:56:37;91096.63;;;6.06
72405;BMP280;60395;52.020;113.548;2023-04-15T15:59:41;91091.59;;;6.00
72405;BMP280;60395;52.020;113.548;2023-04-15T16:02:45;91100.75;;;5.97
72405;BMP280;60395;52.020;113.548;2023-04-15T16:05:51;91080.53;;;5.99
72405;BMP280;60395;52.020;113.548;2023-04-15T16:08:54;91075.94;;;6.00
72405;BMP280;60395;52.020;113.548;2023-04-15T16:11:57;91068.16;;;5.98
72405;BMP280;60395;52.020;113.548;2023-04-15T16:15:01;91061.00;;;5.98
72405;BMP280;60395;52.020;113.548;2023-04-15T16:18:05;91068.84;;;5.96
72405;BMP280;60395;52.020;113.548;2023-04-15T16:21:08;91063.78;;;5.90
72405;BMP280;60395;52.020;113.548;2023-04-15T16:24:12;91043.56;;;5.91
72405;BMP280;60395;52.020;113.548;2023-04-15T16:27:16;91054.59;;;5.93
72405;BMP280;60395;52.020;113.548;2023-04-15T16:30:19;91046.19;;;5.91
72405;BMP280;60395;52.020;113.548;2023-04-15T16:33:23;91039.69;;;5.90
72405;BMP280;60395;52.020;113.548;2023-04-15T16:36:26;91034.44;;;5.92
72405;BMP280;60395;52.020;113.548;2023-04-15T16:39:30;91025.44;;;5.87
72405;BMP280;60395;52.020;113.548;2023-04-15T16:42:33;91030.03;;;5.86
72405;BMP280;60395;52.020;113.548;2023-04-15T16:45:36;91018.97;;;5.86
72405;BMP280;60395;52.020;113.548;2023-04-15T16:48:40;91022.25;;;5.84
72405;BMP280;60395;52.020;113.548;2023-04-15T16:51:43;91014.50;;;5.82
72405;BMP280;60395;52.020;113.548;2023-04-15T16:54:46;91013.75;;;5.86
72405;BMP280;60395;52.020;113.548;2023-04-15T16:57:49;91002.13;;;5.83
72405;BMP280;60395;52.020;113.548;2023-04-15T17:01:03;91001.41;;;5.84
72405;BMP280;60395;52.020;113.548;2023-04-15T17:04:07;90998.25;;;5.79
72405;BMP280;60395;52.020;113.548;2023-04-15T17:07:10;91011.94;;;5.80
72405;BMP280;60395;52.020;113.548;2023-04-15T17:10:13;90989.78;;;5.81
72405;BMP280;60395;52.020;113.548;2023-04-15T17:13:17;90982.69;;;5.77
72405;BMP280;60395;52.020;113.548;2023-04-15T17:16:20;90975.66;;;5.72
72405;BMP280;60395;52.020;113.548;2023-04-15T17:19:23;90975.75;;;5.68
72405;BMP280;60395;52.020;113.548;2023-04-15T17:22:26;90965.50;;;5.62
72405;BMP280;60395;52.020;113.548;2023-04-15T17:25:29;90960.34;;;5.60
72405;BMP280;60395;52.020;113.548;2023-04-15T17:28:33;90957.09;;;5.59
72405;BMP280;60395;52.020;113.548;2023-04-15T17:31:36;90954.59;;;5.55
72405;BMP280;60395;52.020;113.548;2023-04-15T17:34:39;90952.56;;;5.58
72405;BMP280;60395;52.020;113.548;2023-04-15T17:37:52;90955.13;;;5.60
72405;BMP280;60395;52.020;113.548;2023-04-15T17:40:55;90944.19;;;5.55